Terminal Aerodrome Forecast
Issued by NWS

Current Version | Previous Version | Text Only | Print | Product List | Glossary On
Versions: 1 2 3 4 5 6 7 8 9 10 11 12 13 14 15 16 17 18 19 20 21 22 23 24 25
000
FTUS41 KOKX 241900 AAA
TAFGON
TAF AMD
KGON 241958Z 2420/2518 20013G24KT 1SM BR OVC006
     FM250000 21014G23KT 1/2SM FG BKN004 OVC008
     FM250800 23010KT 3/4SM BR SCT002 BKN250
     FM251000 24007KT P6SM FEW020 BKN250
     FM251500 27010G18KT P6SM BKN250=

USA.gov is the U.S. government's official web portal to all federal, state and local government web resources and services.